Time,TemperatureF,DewpointF,PressureIn,WindDirection,WindDirectionDegrees,WindSpeedMPH,WindSpeedGustMPH,Humidity,HourlyPrecipIn,Conditions,Clouds,dailyrainin,SoftwareType,DateUTC
2013-05-02 00:02:00,67.1,63.5,29.88,ENE,66,3.0,9.0,88,0.00,,,0.01,meteohub,2013-05-02 05:02:00,
2013-05-02 00:07:00,67.1,63.5,29.88,NNE,16,3.0,9.0,88,0.00,,,0.00,meteohub,2013-05-02 05:07:00,
2013-05-02 00:12:00,66.9,63.3,29.88,ENE,65,2.0,7.0,88,0.00,,,0.00,meteohub,2013-05-02 05:12:00,
2013-05-02 00:17:00,66.9,63.3,29.88,NE,41,4.0,7.0,88,0.00,,,0.00,meteohub,2013-05-02 05:17:00,
2013-05-02 00:22:00,66.9,63.3,29.88,North,10,4.0,8.0,88,0.00,,,0.00,meteohub,2013-05-02 05:22:00,
2013-05-02 00:27:00,66.9,63.3,29.89,NE,46,2.0,9.0,88,0.00,,,0.00,meteohub,2013-05-02 05:27:00,
2013-05-02 00:32:00,66.9,63.3,29.89,North,355,2.0,9.0,88,0.00,,,0.00,meteohub,2013-05-02 05:32:00,
2013-05-02 00:37:00,66.7,63.1,29.88,NNE,13,3.0,9.0,88,0.00,,,0.00,meteohub,2013-05-02 05:37:00,
2013-05-02 00:42:00,66.7,63.1,29.89,North,5,2.0,8.0,88,0.00,,,0.00,meteohub,2013-05-02 05:42:00,
2013-05-02 00:47:00,66.7,63.3,29.89,North,9,2.0,7.0,89,0.00,,,0.00,meteohub,2013-05-02 05:47:00,
2013-05-02 00:52:00,66.7,63.1,29.89,NNE,16,4.0,5.0,88,0.00,,,0.00,meteohub,2013-05-02 05:52:00,
2013-05-02 00:57:00,66.6,63.0,29.89,North,5,2.0,7.0,88,0.00,,,0.00,meteohub,2013-05-02 05:57:00,
2013-05-02 01:02:00,66.6,63.0,29.89,North,5,0.0,7.0,88,0.00,,,0.00,meteohub,2013-05-02 06:02:00,
2013-05-02 01:07:00,66.7,63.3,29.88,ESE,107,2.0,6.0,89,0.00,,,0.00,meteohub,2013-05-02 06:07:00,
2013-05-02 01:12:00,66.6,63.0,29.88,ESE,109,1.0,7.0,88,0.00,,,0.00,meteohub,2013-05-02 06:12:00,
2013-05-02 01:17:00,66.6,63.0,29.87,East,80,3.0,7.0,88,0.00,,,0.00,meteohub,2013-05-02 06:17:00,
2013-05-02 01:22:00,66.6,63.0,29.87,ENE,57,2.0,7.0,88,0.00,,,0.00,meteohub,2013-05-02 06:22:00,
2013-05-02 01:27:00,66.6,63.0,29.87,ENE,59,2.0,6.0,88,0.00,,,0.00,meteohub,2013-05-02 06:27:00,
2013-05-02 01:32:00,66.6,63.0,29.87,SE,131,4.0,6.0,88,0.00,,,0.00,meteohub,2013-05-02 06:32:00,
2013-05-02 01:37:00,66.6,63.0,29.87,ENE,66,1.0,8.0,88,0.00,,,0.00,meteohub,2013-05-02 06:37:00,
2013-05-02 01:42:00,66.6,63.0,29.87,East,82,5.0,8.0,88,0.00,,,0.00,meteohub,2013-05-02 06:42:00,
2013-05-02 01:47:00,66.6,63.1,29.87,ENE,77,0.0,8.0,89,0.00,,,0.00,meteohub,2013-05-02 06:47:00,
2013-05-02 01:52:00,66.6,63.0,29.86,East,97,1.0,8.0,88,0.00,,,0.00,meteohub,2013-05-02 06:52:00,
2013-05-02 01:57:00,66.4,62.8,29.87,East,100,5.0,8.0,88,0.00,,,0.00,meteohub,2013-05-02 06:57:00,
2013-05-02 02:02:00,66.4,62.8,29.87,East,91,2.0,7.0,88,0.00,,,0.00,meteohub,2013-05-02 07:02:00,
2013-05-02 02:07:00,66.4,62.8,29.87,East,88,0.0,7.0,88,0.00,,,0.00,meteohub,2013-05-02 07:07:00,
2013-05-02 02:12:00,66.0,62.6,29.87,East,94,0.0,7.0,89,0.00,,,0.00,meteohub,2013-05-02 07:12:00,
2013-05-02 02:17:00,66.0,62.6,29.87,East,86,1.0,6.0,89,0.00,,,0.00,meteohub,2013-05-02 07:17:00,
2013-05-02 02:22:00,65.8,62.4,29.87,East,86,0.0,3.0,89,0.00,,,0.00,meteohub,2013-05-02 07:22:00,
2013-05-02 02:27:00,65.7,62.2,29.87,ENE,65,3.0,3.0,89,0.00,,,0.00,meteohub,2013-05-02 07:27:00,
2013-05-02 02:32:00,65.7,62.6,29.87,ENE,65,0.0,4.0,90,0.00,,,0.00,meteohub,2013-05-02 07:32:00,
2013-05-02 02:37:00,65.5,62.4,29.87,ENE,65,2.0,4.0,90,0.00,,,0.00,meteohub,2013-05-02 07:37:00,
2013-05-02 02:42:00,65.5,62.4,29.87,ENE,64,1.0,4.0,90,0.00,,,0.00,meteohub,2013-05-02 07:42:00,
2013-05-02 02:47:00,65.5,62.4,29.87,NE,35,1.0,3.0,90,0.00,,,0.00,meteohub,2013-05-02 07:47:00,
2013-05-02 02:52:00,65.5,62.4,29.87,NE,36,2.0,3.0,90,0.00,,,0.00,meteohub,2013-05-02 07:52:00,
2013-05-02 02:57:00,65.5,62.4,29.87,NE,36,1.0,4.0,90,0.00,,,0.00,meteohub,2013-05-02 07:57:00,
2013-05-02 03:02:00,65.5,62.4,29.87,NE,36,1.0,4.0,90,0.00,,,0.00,meteohub,2013-05-02 08:02:00,
2013-05-02 03:07:00,65.5,62.4,29.87,NE,36,1.0,4.0,90,0.00,,,0.00,meteohub,2013-05-02 08:07:00,
2013-05-02 03:12:00,65.5,62.4,29.87,NE,36,1.0,3.0,90,0.00,,,0.00,meteohub,2013-05-02 08:12:00,
2013-05-02 03:17:00,65.3,62.2,29.87,NE,36,1.0,3.0,90,0.00,,,0.00,meteohub,2013-05-02 08:17:00,
2013-05-02 03:22:00,65.5,62.4,29.88,NE,36,0.0,3.0,90,0.00,,,0.00,meteohub,2013-05-02 08:22:00,
2013-05-02 03:27:00,65.5,62.8,29.88,NE,36,0.0,4.0,91,0.00,,,0.00,meteohub,2013-05-02 08:27:00,
2013-05-02 03:32:00,65.7,62.6,29.88,NE,36,0.0,4.0,90,0.00,,,0.00,meteohub,2013-05-02 08:32:00,
2013-05-02 03:37:00,65.7,62.6,29.88,NE,36,0.0,2.0,90,0.00,,,0.00,meteohub,2013-05-02 08:37:00,
2013-05-02 03:42:00,65.7,62.6,29.87,NE,36,0.0,2.0,90,0.00,,,0.00,meteohub,2013-05-02 08:42:00,
2013-05-02 03:47:00,65.7,62.6,29.87,NE,36,0.0,2.0,90,0.00,,,0.00,meteohub,2013-05-02 08:47:00,
2013-05-02 03:52:00,65.7,62.6,29.87,NE,36,0.0,2.0,90,0.00,,,0.00,meteohub,2013-05-02 08:52:00,
2013-05-02 03:57:00,65.7,62.6,29.87,NE,36,0.0,1.0,90,0.00,,,0.00,meteohub,2013-05-02 08:57:00,
2013-05-02 04:02:00,65.5,62.4,29.87,NE,36,0.0,0.0,90,0.00,,,0.00,meteohub,2013-05-02 09:02:00,
2013-05-02 04:07:00,65.5,62.4,29.87,NE,36,0.0,0.0,90,0.00,,,0.00,meteohub,2013-05-02 09:07:00,
2013-05-02 04:12:00,65.3,62.6,29.88,NE,36,0.0,0.0,91,0.00,,,0.00,meteohub,2013-05-02 09:12:00,
2013-05-02 04:17:00,65.3,62.6,29.88,NE,36,0.0,0.0,91,0.00,,,0.00,meteohub,2013-05-02 09:17:00,
2013-05-02 04:22:00,65.3,62.6,29.87,NE,36,0.0,0.0,91,0.00,,,0.00,meteohub,2013-05-02 09:22:00,
2013-05-02 04:27:00,65.1,62.4,29.88,NE,36,0.0,0.0,91,0.00,,,0.00,meteohub,2013-05-02 09:27:00,
2013-05-02 04:32:00,65.1,62.4,29.88,NE,36,0.0,0.0,91,0.00,,,0.00,meteohub,2013-05-02 09:32:00,
2013-05-02 04:37:00,65.3,62.6,29.88,NE,36,1.0,2.0,91,0.00,,,0.00,meteohub,2013-05-02 09:37:00,
2013-05-02 04:42:00,65.5,63.1,29.88,NE,36,1.0,2.0,92,0.00,,,0.00,meteohub,2013-05-02 09:42:00,
2013-05-02 04:47:00,65.5,63.1,29.88,NE,36,2.0,2.0,92,0.00,,,0.00,meteohub,2013-05-02 09:47:00,
2013-05-02 04:52:00,65.5,63.1,29.89,NE,36,1.0,3.0,92,0.00,,,0.00,meteohub,2013-05-02 09:52:00,
2013-05-02 04:57:00,65.5,63.1,29.89,NE,36,0.0,3.0,92,0.00,,,0.00,meteohub,2013-05-02 09:57:00,
2013-05-02 05:02:00,65.5,63.1,29.89,NE,36,0.0,3.0,92,0.00,,,0.00,meteohub,2013-05-02 10:02:00,
2013-05-02 05:07:00,65.5,63.1,29.89,NE,36,1.0,3.0,92,0.00,,,0.00,meteohub,2013-05-02 10:07:00,
2013-05-02 05:12:00,65.5,63.1,29.89,NE,36,0.0,2.0,92,0.00,,,0.00,meteohub,2013-05-02 10:12:00,
2013-05-02 05:17:00,65.5,63.1,29.89,NE,36,0.0,2.0,92,0.00,,,0.00,meteohub,2013-05-02 10:17:00,
2013-05-02 05:22:00,65.5,63.1,29.89,NE,36,0.0,2.0,92,0.00,,,0.00,meteohub,2013-05-02 10:22:00,
2013-05-02 05:27:00,65.3,63.0,29.89,NE,36,0.0,2.0,92,0.00,,,0.00,meteohub,2013-05-02 10:27:00,
2013-05-02 05:32:00,65.3,63.0,29.89,NE,36,0.0,1.0,92,0.00,,,0.00,meteohub,2013-05-02 10:32:00,
2013-05-02 05:37:00,65.1,62.8,29.89,NE,36,0.0,1.0,92,0.00,,,0.00,meteohub,2013-05-02 10:37:00,
2013-05-02 05:42:00,65.1,62.8,29.89,NE,36,0.0,2.0,92,0.00,,,0.00,meteohub,2013-05-02 10:42:00,
2013-05-02 05:47:00,64.9,62.6,29.89,NE,36,0.0,2.0,92,0.00,,,0.00,meteohub,2013-05-02 10:47:00,
2013-05-02 05:52:00,64.9,62.6,29.89,NE,36,0.0,2.0,92,0.00,,,0.00,meteohub,2013-05-02 10:52:00,
2013-05-02 05:57:00,64.8,62.4,29.89,NE,36,0.0,1.0,92,0.00,,,0.00,meteohub,2013-05-02 10:57:00,
2013-05-02 06:02:00,64.8,62.4,29.90,NE,36,0.0,1.0,92,0.00,,,0.00,meteohub,2013-05-02 11:02:00,
2013-05-02 06:07:00,64.4,62.1,29.90,NE,36,0.0,1.0,92,0.00,,,0.00,meteohub,2013-05-02 11:07:00,
2013-05-02 06:12:00,64.2,61.9,29.90,NE,36,0.0,1.0,92,0.00,,,0.00,meteohub,2013-05-02 11:12:00,
2013-05-02 06:17:00,64.0,62.1,29.90,NE,36,0.0,0.0,93,0.00,,,0.00,meteohub,2013-05-02 11:17:00,
2013-05-02 06:22:00,64.0,62.1,29.90,NE,36,2.0,3.0,93,0.00,,,0.00,meteohub,2013-05-02 11:22:00,
2013-05-02 06:27:00,64.2,62.2,29.91,NE,36,0.0,3.0,93,0.00,,,0.00,meteohub,2013-05-02 11:27:00,
2013-05-02 06:32:00,64.0,62.1,29.91,NE,36,0.0,3.0,93,0.00,,,0.00,meteohub,2013-05-02 11:32:00,
2013-05-02 06:37:00,64.0,62.1,29.91,NE,36,0.0,3.0,93,0.00,,,0.00,meteohub,2013-05-02 11:37:00,
2013-05-02 06:42:00,64.0,62.1,29.91,NE,36,1.0,3.0,93,0.00,,,0.00,meteohub,2013-05-02 11:42:00,
2013-05-02 06:47:00,64.0,62.1,29.91,NE,36,1.0,2.0,93,0.00,,,0.00,meteohub,2013-05-02 11:47:00,
2013-05-02 06:52:00,64.0,62.2,29.91,NE,36,0.0,3.0,94,0.00,,,0.00,meteohub,2013-05-02 11:52:00,
2013-05-02 06:57:00,64.0,62.2,29.91,NE,36,0.0,3.0,94,0.00,,,0.00,meteohub,2013-05-02 11:57:00,
2013-05-02 07:02:00,64.0,62.2,29.92,NE,36,0.0,3.0,94,0.00,,,0.00,meteohub,2013-05-02 12:02:00,
2013-05-02 07:07:00,64.0,62.2,29.92,NE,36,0.0,1.0,94,0.00,,,0.00,meteohub,2013-05-02 12:07:00,
2013-05-02 07:12:00,64.2,62.4,29.93,NE,36,0.0,1.0,94,0.00,,,0.00,meteohub,2013-05-02 12:12:00,
2013-05-02 07:17:00,64.4,62.6,29.93,NE,36,0.0,1.0,94,0.00,,,0.00,meteohub,2013-05-02 12:17:00,
2013-05-02 07:22:00,64.6,62.8,29.93,NE,36,0.0,0.0,94,0.00,,,0.00,meteohub,2013-05-02 12:22:00,
2013-05-02 07:27:00,64.6,62.8,29.93,NE,36,0.0,0.0,94,0.00,,,0.00,meteohub,2013-05-02 12:27:00,
2013-05-02 07:32:00,64.8,63.0,29.93,NE,36,0.0,0.0,94,0.00,,,0.00,meteohub,2013-05-02 12:32:00,
2013-05-02 07:37:00,64.8,63.0,29.93,NE,36,0.0,0.0,94,0.00,,,0.00,meteohub,2013-05-02 12:37:00,
2013-05-02 07:42:00,64.9,63.1,29.93,NE,36,0.0,0.0,94,0.00,,,0.00,meteohub,2013-05-02 12:42:00,
2013-05-02 07:47:00,64.9,63.1,29.93,NE,36,0.0,0.0,94,0.00,,,0.00,meteohub,2013-05-02 12:47:00,
2013-05-02 07:52:00,64.9,63.1,29.93,NE,36,0.0,0.0,94,0.00,,,0.00,meteohub,2013-05-02 12:52:00,
2013-05-02 07:57:00,65.1,63.3,29.93,NE,36,0.0,0.0,94,0.00,,,0.00,meteohub,2013-05-02 12:57:00,
2013-05-02 08:02:00,65.3,63.5,29.93,NE,36,0.0,1.0,94,0.00,,,0.00,meteohub,2013-05-02 13:02:00,
2013-05-02 08:07:00,65.5,63.7,29.93,NE,36,0.0,1.0,94,0.00,,,0.00,meteohub,2013-05-02 13:07:00,
2013-05-02 08:12:00,65.7,63.9,29.94,NE,36,0.0,1.0,94,0.00,,,0.00,meteohub,2013-05-02 13:12:00,
2013-05-02 08:17:00,65.7,63.5,29.94,NE,36,0.0,1.0,93,0.00,,,0.00,meteohub,2013-05-02 13:17:00,
2013-05-02 08:22:00,65.8,63.7,29.93,NE,36,0.0,1.0,93,0.00,,,0.00,meteohub,2013-05-02 13:22:00,
2013-05-02 08:27:00,66.2,64.0,29.93,NE,36,0.0,2.0,93,0.00,,,0.00,meteohub,2013-05-02 13:27:00,
2013-05-02 08:32:00,66.9,64.6,29.93,NE,36,2.0,2.0,92,0.00,,,0.00,meteohub,2013-05-02 13:32:00,
2013-05-02 08:37:00,67.3,64.2,29.93,NE,36,0.0,3.0,90,0.00,,,0.00,meteohub,2013-05-02 13:37:00,
2013-05-02 08:42:00,67.8,64.4,29.93,NE,36,0.0,3.0,89,0.00,,,0.00,meteohub,2013-05-02 13:42:00,
2013-05-02 08:47:00,68.4,64.9,29.93,North,11,2.0,4.0,89,0.00,,,0.00,meteohub,2013-05-02 13:47:00,
2013-05-02 08:52:00,68.5,64.6,29.93,North,10,7.0,7.0,87,0.00,,,0.00,meteohub,2013-05-02 13:52:00,
2013-05-02 08:57:00,68.4,64.4,29.93,North,0,6.0,8.0,87,0.00,,,0.00,meteohub,2013-05-02 13:57:00,
2013-05-02 09:02:00,68.4,64.4,29.93,NNE,30,4.0,8.0,87,0.00,,,0.00,meteohub,2013-05-02 14:02:00,
2013-05-02 09:07:00,68.4,64.6,29.93,NNE,20,4.0,8.0,88,0.00,,,0.00,meteohub,2013-05-02 14:07:00,
2013-05-02 09:12:00,68.4,64.4,29.93,NNE,19,2.0,8.0,87,0.00,,,0.00,meteohub,2013-05-02 14:12:00,
2013-05-02 09:17:00,68.5,64.2,29.94,NNE,15,5.0,6.0,86,0.00,,,0.00,meteohub,2013-05-02 14:17:00,
2013-05-02 09:22:00,68.5,64.2,29.94,North,0,5.0,8.0,86,0.00,,,0.00,meteohub,2013-05-02 14:22:00,
2013-05-02 09:27:00,68.7,64.4,29.94,NNE,25,5.0,9.0,86,0.00,,,0.00,meteohub,2013-05-02 14:27:00,
2013-05-02 09:32:00,69.1,64.4,29.93,North,11,5.0,9.0,85,0.00,,,0.00,meteohub,2013-05-02 14:32:00,
2013-05-02 09:37:00,69.4,64.8,29.94,North,5,9.0,9.0,85,0.00,,,0.00,meteohub,2013-05-02 14:37:00,
2013-05-02 09:42:00,69.4,64.4,29.94,NE,35,7.0,10.0,84,0.00,,,0.00,meteohub,2013-05-02 14:42:00,
2013-05-02 09:47:00,69.4,64.4,29.93,NE,42,5.0,10.0,84,0.00,,,0.00,meteohub,2013-05-02 14:47:00,
2013-05-02 09:52:00,69.6,64.2,29.93,NNE,21,9.0,10.0,83,0.00,,,0.00,meteohub,2013-05-02 14:52:00,
2013-05-02 09:57:00,69.6,64.2,29.93,NE,39,7.0,9.0,83,0.00,,,0.00,meteohub,2013-05-02 14:57:00,
2013-05-02 10:02:00,70.0,64.6,29.93,NNE,25,6.0,11.0,83,0.00,,,0.00,meteohub,2013-05-02 15:02:00,
2013-05-02 10:07:00,70.3,64.9,29.94,NNE,13,7.0,11.0,83,0.00,,,0.00,meteohub,2013-05-02 15:07:00,
2013-05-02 10:12:00,70.3,64.6,29.94,NNE,24,6.0,9.0,82,0.00,,,0.00,meteohub,2013-05-02 15:12:00,
2013-05-02 10:17:00,70.5,64.8,29.94,NE,38,7.0,11.0,82,0.00,,,0.00,meteohub,2013-05-02 15:17:00,
2013-05-02 10:22:00,70.9,65.1,29.94,NNE,17,6.0,11.0,82,0.00,,,0.00,meteohub,2013-05-02 15:22:00,
2013-05-02 10:27:00,70.9,64.4,29.94,NNE,27,4.0,9.0,80,0.00,,,0.00,meteohub,2013-05-02 15:27:00,
2013-05-02 10:32:00,71.2,64.8,29.94,NNE,18,5.0,9.0,80,0.00,,,0.00,meteohub,2013-05-02 15:32:00,
2013-05-02 10:37:00,71.2,64.4,29.94,North,5,8.0,10.0,79,0.00,,,0.00,meteohub,2013-05-02 15:37:00,
2013-05-02 10:42:00,71.2,64.4,29.94,NNE,29,6.0,10.0,79,0.00,,,0.00,meteohub,2013-05-02 15:42:00,
2013-05-02 10:47:00,71.4,64.6,29.94,North,0,5.0,10.0,79,0.00,,,0.00,meteohub,2013-05-02 15:47:00,
2013-05-02 10:52:00,71.1,64.6,29.94,NNE,19,4.0,10.0,80,0.00,,,0.00,meteohub,2013-05-02 15:52:00,
2013-05-02 10:57:00,71.1,64.9,29.94,NE,36,2.0,10.0,81,0.00,,,0.00,meteohub,2013-05-02 15:57:00,
2013-05-02 11:02:00,71.2,65.1,29.94,NNE,23,4.0,9.0,81,0.00,,,0.00,meteohub,2013-05-02 16:02:00,
2013-05-02 11:07:00,71.2,65.1,29.94,North,10,3.0,9.0,81,0.00,,,0.00,meteohub,2013-05-02 16:07:00,
2013-05-02 11:12:00,71.4,64.9,29.94,NNE,32,4.0,8.0,80,0.00,,,0.00,meteohub,2013-05-02 16:12:00,
2013-05-02 11:17:00,71.4,65.3,29.94,NE,54,5.0,9.0,81,0.00,,,0.00,meteohub,2013-05-02 16:17:00,
2013-05-02 11:22:00,71.8,64.9,29.94,NNE,21,3.0,9.0,79,0.00,,,0.00,meteohub,2013-05-02 16:22:00,
2013-05-02 11:27:00,71.8,65.3,29.94,North,11,4.0,9.0,80,0.00,,,0.00,meteohub,2013-05-02 16:27:00,
2013-05-02 11:32:00,71.4,64.9,29.94,NNE,19,8.0,9.0,80,0.00,,,0.00,meteohub,2013-05-02 16:32:00,
2013-05-02 11:37:00,71.2,64.8,29.94,North,5,6.0,9.0,80,0.00,,,0.00,meteohub,2013-05-02 16:37:00,
2013-05-02 11:42:00,71.4,64.9,29.94,NNE,24,5.0,9.0,80,0.00,,,0.00,meteohub,2013-05-02 16:42:00,
2013-05-02 11:47:00,71.8,64.9,29.94,North,9,4.0,9.0,79,0.00,,,0.00,meteohub,2013-05-02 16:47:00,
2013-05-02 11:52:00,71.8,64.9,29.94,North,355,6.0,8.0,79,0.00,,,0.00,meteohub,2013-05-02 16:52:00,
2013-05-02 11:57:00,71.8,64.9,29.94,North,5,7.0,9.0,79,0.00,,,0.00,meteohub,2013-05-02 16:57:00,
2013-05-02 12:02:00,71.8,65.3,29.93,NNE,19,5.0,9.0,80,0.00,,,0.00,meteohub,2013-05-02 17:02:00,
2013-05-02 12:07:00,71.8,64.9,29.94,NNE,13,3.0,9.0,79,0.00,,,0.00,meteohub,2013-05-02 17:07:00,
2013-05-02 12:12:00,71.8,64.9,29.94,North,355,1.0,9.0,79,0.00,,,0.00,meteohub,2013-05-02 17:12:00,
2013-05-02 12:17:00,72.0,65.5,29.94,NNW,338,3.0,7.0,80,0.00,,,0.00,meteohub,2013-05-02 17:17:00,
2013-05-02 12:22:00,71.8,64.9,29.93,North,0,2.0,6.0,79,0.00,,,0.00,meteohub,2013-05-02 17:22:00,
2013-05-02 12:27:00,72.0,65.5,29.93,NNE,24,6.0,6.0,80,0.00,,,0.00,meteohub,2013-05-02 17:27:00,
2013-05-02 12:32:00,72.1,65.7,29.93,North,0,3.0,8.0,80,0.00,,,0.00,meteohub,2013-05-02 17:32:00,
2013-05-02 12:37:00,72.7,65.8,29.93,NE,47,3.0,8.0,79,0.00,,,0.00,meteohub,2013-05-02 17:37:00,
2013-05-02 12:42:00,72.7,65.8,29.93,NE,45,2.0,8.0,79,0.00,,,0.00,meteohub,2013-05-02 17:42:00,
2013-05-02 12:47:00,73.2,65.7,29.92,NNW,348,5.0,7.0,77,0.00,,,0.00,meteohub,2013-05-02 17:47:00,
2013-05-02 12:52:00,73.6,65.8,29.92,NNE,19,5.0,8.0,77,0.00,,,0.00,meteohub,2013-05-02 17:52:00,
2013-05-02 12:57:00,73.8,66.4,29.92,NE,34,9.0,10.0,78,0.00,,,0.00,meteohub,2013-05-02 17:57:00,
2013-05-02 13:02:00,74.5,66.4,29.92,NE,34,9.0,10.0,76,0.00,,,0.00,meteohub,2013-05-02 18:02:00,
2013-05-02 13:07:00,73.8,65.7,29.92,North,355,5.0,14.0,76,0.00,,,0.00,meteohub,2013-05-02 18:07:00,
2013-05-02 13:12:00,73.6,66.4,29.92,North,350,5.0,14.0,78,0.00,,,0.00,meteohub,2013-05-02 18:12:00,
2013-05-02 13:17:00,73.8,66.4,29.91,NE,35,5.0,14.0,78,0.00,,,0.00,meteohub,2013-05-02 18:17:00,
2013-05-02 13:22:00,74.5,66.4,29.91,NNE,15,6.0,10.0,76,0.00,,,0.00,meteohub,2013-05-02 18:22:00,
2013-05-02 13:27:00,74.5,66.4,29.91,North,355,4.0,10.0,76,0.00,,,0.00,meteohub,2013-05-02 18:27:00,
2013-05-02 13:32:00,74.3,65.8,29.91,NNE,22,5.0,10.0,75,0.00,,,0.00,meteohub,2013-05-02 18:32:00,
2013-05-02 13:37:00,74.5,66.4,29.91,North,0,3.0,9.0,76,0.00,,,0.00,meteohub,2013-05-02 18:37:00,
2013-05-02 13:42:00,74.1,66.0,29.91,NNE,12,2.0,9.0,76,0.00,,,0.00,meteohub,2013-05-02 18:42:00,
2013-05-02 13:47:00,74.5,66.4,29.91,NE,38,8.0,9.0,76,0.00,,,0.00,meteohub,2013-05-02 18:47:00,
2013-05-02 13:52:00,75.4,66.6,29.91,NNW,333,6.0,9.0,74,0.00,,,0.00,meteohub,2013-05-02 18:52:00,
2013-05-02 13:57:00,75.7,65.7,29.91,NNE,26,7.0,9.0,71,0.00,,,0.00,meteohub,2013-05-02 18:57:00,
2013-05-02 14:02:00,75.6,66.4,29.91,NNE,15,6.0,10.0,73,0.00,,,0.00,meteohub,2013-05-02 19:02:00,
2013-05-02 14:07:00,75.7,65.7,29.90,North,355,5.0,10.0,71,0.00,,,0.00,meteohub,2013-05-02 19:07:00,
2013-05-02 14:12:00,75.9,66.2,29.91,NNE,18,3.0,10.0,72,0.00,,,0.00,meteohub,2013-05-02 19:12:00,
2013-05-02 14:17:00,75.9,66.6,29.91,NNE,19,2.0,9.0,73,0.00,,,0.00,meteohub,2013-05-02 19:17:00,
2013-05-02 14:22:00,76.1,66.4,29.91,NNW,333,2.0,7.0,72,0.00,,,0.00,meteohub,2013-05-02 19:22:00,
2013-05-02 14:27:00,76.1,66.7,29.90,North,5,2.0,7.0,73,0.00,,,0.00,meteohub,2013-05-02 19:27:00,
2013-05-02 14:32:00,75.9,67.1,29.90,North,355,2.0,8.0,74,0.00,,,0.00,meteohub,2013-05-02 19:32:00,
2013-05-02 14:37:00,75.9,67.1,29.90,NNW,348,2.0,8.0,74,0.00,,,0.00,meteohub,2013-05-02 19:37:00,
2013-05-02 14:42:00,76.3,66.9,29.90,North,0,4.0,8.0,73,0.00,,,0.00,meteohub,2013-05-02 19:42:00,
2013-05-02 14:47:00,76.3,66.9,29.90,NNE,27,4.0,7.0,73,0.00,,,0.00,meteohub,2013-05-02 19:47:00,
2013-05-02 14:52:00,76.5,67.6,29.90,NNE,17,1.0,7.0,74,0.00,,,0.00,meteohub,2013-05-02 19:52:00,
2013-05-02 14:57:00,76.6,67.3,29.90,North,5,1.0,7.0,73,0.00,,,0.00,meteohub,2013-05-02 19:57:00,
2013-05-02 15:02:00,77.0,67.3,29.90,NNE,15,1.0,7.0,72,0.00,,,0.00,meteohub,2013-05-02 20:02:00,
2013-05-02 15:07:00,77.0,67.6,29.90,NW,317,1.0,5.0,73,0.00,,,0.00,meteohub,2013-05-02 20:07:00,
2013-05-02 15:12:00,76.6,67.3,29.90,NE,41,6.0,6.0,73,0.00,,,0.00,meteohub,2013-05-02 20:12:00,
2013-05-02 15:17:00,76.3,66.9,29.90,NNE,29,3.0,8.0,73,0.00,,,0.00,meteohub,2013-05-02 20:17:00,
2013-05-02 15:22:00,75.9,66.6,29.90,NE,44,3.0,8.0,73,0.00,,,0.00,meteohub,2013-05-02 20:22:00,
2013-05-02 15:27:00,75.9,66.6,29.90,ENE,59,1.0,8.0,73,0.00,,,0.00,meteohub,2013-05-02 20:27:00,
2013-05-02 15:32:00,75.6,67.1,29.90,NE,42,5.0,12.0,75,0.00,,,0.00,meteohub,2013-05-02 20:32:00,
2013-05-02 15:37:00,74.7,66.6,29.90,ENE,78,2.0,12.0,76,0.00,,,0.00,meteohub,2013-05-02 20:37:00,
2013-05-02 15:42:00,74.1,66.4,29.89,East,84,5.0,12.0,77,0.00,,,0.00,meteohub,2013-05-02 20:42:00,
2013-05-02 15:47:00,73.9,66.6,29.90,East,82,3.0,8.0,78,0.00,,,0.00,meteohub,2013-05-02 20:47:00,
2013-05-02 15:52:00,73.2,66.0,29.90,NNE,26,5.0,7.0,78,0.00,,,0.00,meteohub,2013-05-02 20:52:00,
2013-05-02 15:57:00,72.7,67.3,29.91,North,0,2.0,9.0,83,0.07,,,0.07,meteohub,2013-05-02 20:57:00,
2013-05-02 16:02:00,71.2,66.2,29.90,North,0,1.0,9.0,84,0.10,,,0.10,meteohub,2013-05-02 21:02:00,
2013-05-02 16:07:00,70.5,66.4,29.90,West,260,0.0,9.0,87,0.13,,,0.13,meteohub,2013-05-02 21:07:00,
2013-05-02 16:12:00,70.2,66.4,29.90,West,260,0.0,6.0,88,0.15,,,0.15,meteohub,2013-05-02 21:12:00,
2013-05-02 16:17:00,69.8,66.7,29.90,West,260,0.0,3.0,90,0.16,,,0.16,meteohub,2013-05-02 21:17:00,
2013-05-02 16:22:00,69.6,66.6,29.90,West,260,0.0,1.0,90,0.17,,,0.17,meteohub,2013-05-02 21:22:00,
2013-05-02 16:27:00,69.3,66.6,29.90,West,260,0.0,0.0,91,0.18,,,0.18,meteohub,2013-05-02 21:27:00,
2013-05-02 16:32:00,69.3,66.6,29.90,NW,306,0.0,2.0,91,0.18,,,0.18,meteohub,2013-05-02 21:32:00,
2013-05-02 16:37:00,69.1,66.4,29.90,NW,305,0.0,3.0,91,0.18,,,0.18,meteohub,2013-05-02 21:37:00,
2013-05-02 16:47:00,68.9,66.6,29.90,North,349,2.0,4.0,92,0.19,,,0.19,meteohub,2013-05-02 21:47:00,
2013-05-02 16:52:00,68.7,66.4,29.90,NNW,340,4.0,4.0,92,0.19,,,0.19,meteohub,2013-05-02 21:52:00,
2013-05-02 16:57:00,68.7,66.4,29.90,North,0,1.0,5.0,92,0.10,,,0.19,meteohub,2013-05-02 21:57:00,
2013-05-02 17:02:00,68.5,66.4,29.90,North,5,0.0,5.0,93,0.08,,,0.20,meteohub,2013-05-02 22:02:00,
2013-05-02 17:07:00,68.4,66.0,29.90,North,5,1.0,5.0,92,0.08,,,0.21,meteohub,2013-05-02 22:07:00,
2013-05-02 17:12:00,68.4,66.0,29.90,NNE,29,2.0,5.0,92,0.06,,,0.21,meteohub,2013-05-02 22:12:00,
2013-05-02 17:17:00,68.4,66.2,29.90,North,9,4.0,5.0,93,0.04,,,0.21,meteohub,2013-05-02 22:17:00,
2013-05-02 17:22:00,68.5,66.4,29.90,NNE,31,2.0,6.0,93,0.03,,,0.21,meteohub,2013-05-02 22:22:00,
2013-05-02 17:27:00,68.4,66.2,29.90,North,5,5.0,6.0,93,0.03,,,0.21,meteohub,2013-05-02 22:27:00,
2013-05-02 17:32:00,68.5,66.4,29.90,NW,319,1.0,6.0,93,0.03,,,0.21,meteohub,2013-05-02 22:32:00,
2013-05-02 17:37:00,68.5,66.2,29.90,North,5,0.0,5.0,92,0.03,,,0.21,meteohub,2013-05-02 22:37:00,
2013-05-02 17:42:00,68.5,66.4,29.90,NNE,25,2.0,5.0,93,0.03,,,0.22,meteohub,2013-05-02 22:42:00,
2013-05-02 17:47:00,68.7,66.6,29.91,North,5,2.0,5.0,93,0.04,,,0.23,meteohub,2013-05-02 22:47:00,
2013-05-02 17:52:00,68.7,66.6,29.91,North,0,0.0,6.0,93,0.04,,,0.23,meteohub,2013-05-02 22:52:00,
2013-05-02 17:57:00,69.1,66.9,29.91,North,355,3.0,6.0,93,0.04,,,0.23,meteohub,2013-05-02 22:57:00,
2013-05-02 18:02:00,69.1,66.7,29.91,NNE,20,1.0,4.0,92,0.03,,,0.23,meteohub,2013-05-02 23:02:00,
2013-05-02 18:07:00,69.3,67.1,29.90,North,0,2.0,4.0,93,0.02,,,0.23,meteohub,2013-05-02 23:07:00,
2013-05-02 18:12:00,69.3,67.1,29.90,NNW,346,3.0,4.0,93,0.02,,,0.23,meteohub,2013-05-02 23:12:00,
2013-05-02 18:17:00,69.4,67.1,29.90,NNW,347,5.0,5.0,92,0.02,,,0.23,meteohub,2013-05-02 23:17:00,
2013-05-02 18:22:00,69.6,67.3,29.91,North,0,3.0,6.0,92,0.02,,,0.23,meteohub,2013-05-02 23:22:00,
2013-05-02 18:27:00,69.6,67.3,29.90,NNW,345,8.0,8.0,92,0.02,,,0.23,meteohub,2013-05-02 23:27:00,
2013-05-02 18:32:00,69.4,67.1,29.91,North,355,4.0,8.0,92,0.02,,,0.23,meteohub,2013-05-02 23:32:00,
2013-05-02 18:37:00,69.3,66.9,29.91,North,355,5.0,8.0,92,0.02,,,0.23,meteohub,2013-05-02 23:37:00,
2013-05-02 18:42:00,69.1,66.7,29.91,NNE,29,3.0,8.0,92,0.01,,,0.23,meteohub,2013-05-02 23:42:00,
2013-05-02 18:47:00,69.1,66.7,29.91,NNE,18,4.0,7.0,92,0.00,,,0.23,meteohub,2013-05-02 23:47:00,
2013-05-02 18:52:00,68.7,66.4,29.91,NNE,18,4.0,8.0,92,0.00,,,0.23,meteohub,2013-05-02 23:52:00,
2013-05-02 18:57:00,68.7,66.4,29.91,NNW,331,3.0,8.0,92,0.00,,,0.23,meteohub,2013-05-02 23:57:00,
2013-05-02 19:02:00,68.7,66.6,29.91,NNE,19,2.0,8.0,93,0.00,,,0.23,meteohub,2013-05-03 00:02:00,
2013-05-02 19:07:00,68.5,66.4,29.91,North,0,4.0,7.0,93,0.00,,,0.23,meteohub,2013-05-03 00:07:00,
2013-05-02 19:12:00,68.5,66.4,29.91,NNE,32,4.0,8.0,93,0.00,,,0.23,meteohub,2013-05-03 00:12:00,
2013-05-02 19:17:00,68.5,66.4,29.91,NNW,340,4.0,10.0,93,0.00,,,0.23,meteohub,2013-05-03 00:17:00,
2013-05-02 19:22:00,68.4,66.2,29.91,NE,44,5.0,10.0,93,0.00,,,0.23,meteohub,2013-05-03 00:22:00,
2013-05-02 19:27:00,68.4,66.2,29.91,North,349,4.0,10.0,93,0.00,,,0.23,meteohub,2013-05-03 00:27:00,
2013-05-02 19:32:00,68.4,66.2,29.91,North,5,4.0,9.0,93,0.00,,,0.23,meteohub,2013-05-03 00:32:00,
2013-05-02 19:37:00,68.2,66.0,29.92,NNE,18,3.0,7.0,93,0.00,,,0.23,meteohub,2013-05-03 00:37:00,
2013-05-02 19:42:00,68.2,66.0,29.92,North,350,6.0,7.0,93,0.00,,,0.23,meteohub,2013-05-03 00:42:00,
2013-05-02 19:47:00,68.0,66.2,29.92,North,5,2.0,7.0,94,0.00,,,0.23,meteohub,2013-05-03 00:47:00,
2013-05-02 19:52:00,67.8,65.7,29.92,NNW,344,5.0,7.0,93,0.00,,,0.23,meteohub,2013-05-03 00:52:00,
2013-05-02 19:57:00,67.8,66.0,29.92,NNW,347,5.0,7.0,94,0.00,,,0.23,meteohub,2013-05-03 00:57:00,
2013-05-02 20:02:00,67.8,66.0,29.93,North,355,3.0,6.0,94,0.00,,,0.23,meteohub,2013-05-03 01:02:00,
2013-05-02 20:07:00,67.8,66.0,29.92,NNE,15,3.0,6.0,94,0.00,,,0.23,meteohub,2013-05-03 01:07:00,
2013-05-02 20:12:00,67.8,66.0,29.92,NE,34,3.0,6.0,94,0.00,,,0.23,meteohub,2013-05-03 01:12:00,
2013-05-02 20:17:00,67.6,65.8,29.93,North,350,3.0,5.0,94,0.00,,,0.23,meteohub,2013-05-03 01:17:00,
2013-05-02 20:22:00,67.6,65.8,29.93,North,0,0.0,6.0,94,0.00,,,0.23,meteohub,2013-05-03 01:22:00,
2013-05-02 20:27:00,67.5,65.7,29.93,North,0,0.0,6.0,94,0.00,,,0.23,meteohub,2013-05-03 01:27:00,
2013-05-02 20:32:00,67.5,65.7,29.94,North,0,0.0,5.0,94,0.00,,,0.23,meteohub,2013-05-03 01:32:00,
2013-05-02 20:37:00,67.5,65.7,29.94,North,0,2.0,2.0,94,0.00,,,0.23,meteohub,2013-05-03 01:37:00,
2013-05-02 20:42:00,67.3,65.5,29.94,North,0,1.0,4.0,94,0.00,,,0.23,meteohub,2013-05-03 01:42:00,
2013-05-02 20:47:00,67.1,65.3,29.94,North,0,0.0,4.0,94,0.00,,,0.23,meteohub,2013-05-03 01:47:00,
2013-05-02 20:52:00,66.9,65.1,29.94,North,0,0.0,4.0,94,0.00,,,0.23,meteohub,2013-05-03 01:52:00,
2013-05-02 20:57:00,66.9,65.1,29.94,North,0,0.0,3.0,94,0.00,,,0.23,meteohub,2013-05-03 01:57:00,
2013-05-02 21:02:00,66.9,65.1,29.94,North,0,2.0,2.0,94,0.00,,,0.23,meteohub,2013-05-03 02:02:00,
2013-05-02 21:07:00,66.9,65.1,29.94,North,0,0.0,2.0,94,0.00,,,0.23,meteohub,2013-05-03 02:07:00,
2013-05-02 21:12:00,66.9,65.1,29.94,North,0,0.0,2.0,94,0.01,,,0.24,meteohub,2013-05-03 02:12:00,
2013-05-02 21:17:00,66.9,65.1,29.95,North,0,0.0,2.0,94,0.01,,,0.24,meteohub,2013-05-03 02:17:00,
2013-05-02 21:22:00,66.9,65.1,29.95,North,0,0.0,2.0,94,0.01,,,0.24,meteohub,2013-05-03 02:22:00,
2013-05-02 21:27:00,67.1,65.3,29.95,North,0,2.0,2.0,94,0.01,,,0.24,meteohub,2013-05-03 02:27:00,
2013-05-02 21:32:00,66.9,65.1,29.95,North,0,0.0,3.0,94,0.01,,,0.24,meteohub,2013-05-03 02:32:00,
2013-05-02 21:37:00,66.9,65.1,29.95,North,0,2.0,3.0,94,0.01,,,0.24,meteohub,2013-05-03 02:37:00,
2013-05-02 21:42:00,67.1,65.3,29.95,NNE,22,2.0,3.0,94,0.01,,,0.24,meteohub,2013-05-03 02:42:00,
2013-05-02 21:47:00,66.9,65.1,29.95,NNE,22,3.0,4.0,94,0.01,,,0.24,meteohub,2013-05-03 02:47:00,
2013-05-02 21:52:00,66.9,65.1,29.95,North,0,3.0,4.0,94,0.01,,,0.24,meteohub,2013-05-03 02:52:00,
2013-05-02 21:57:00,66.9,65.1,29.95,North,350,1.0,5.0,94,0.01,,,0.24,meteohub,2013-05-03 02:57:00,
2013-05-02 22:02:00,66.9,65.1,29.95,North,355,1.0,5.0,94,0.01,,,0.24,meteohub,2013-05-03 03:02:00,
2013-05-02 22:07:00,66.9,65.1,29.95,North,355,0.0,5.0,94,0.01,,,0.24,meteohub,2013-05-03 03:07:00,
2013-05-02 22:12:00,66.9,65.1,29.95,North,355,3.0,4.0,94,0.00,,,0.24,meteohub,2013-05-03 03:12:00,
2013-05-02 22:17:00,66.7,64.9,29.96,North,355,2.0,4.0,94,0.00,,,0.24,meteohub,2013-05-03 03:17:00,
2013-05-02 22:22:00,66.7,64.9,29.96,North,0,4.0,4.0,94,0.00,,,0.24,meteohub,2013-05-03 03:22:00,
2013-05-02 22:27:00,66.7,64.9,29.96,NNW,348,2.0,5.0,94,0.01,,,0.25,meteohub,2013-05-03 03:27:00,
2013-05-02 22:32:00,66.7,64.9,29.96,North,355,2.0,5.0,94,0.01,,,0.25,meteohub,2013-05-03 03:32:00,
2013-05-02 22:37:00,66.7,64.9,29.96,North,0,1.0,5.0,94,0.01,,,0.25,meteohub,2013-05-03 03:37:00,
2013-05-02 22:42:00,66.7,64.9,29.96,North,11,3.0,5.0,94,0.01,,,0.25,meteohub,2013-05-03 03:42:00,
2013-05-02 22:47:00,66.7,64.9,29.96,NE,34,3.0,4.0,94,0.01,,,0.25,meteohub,2013-05-03 03:47:00,
2013-05-02 22:52:00,66.6,64.8,29.95,North,355,3.0,5.0,94,0.04,,,0.28,meteohub,2013-05-03 03:52:00,
2013-05-02 22:57:00,66.7,64.9,29.95,NNE,13,4.0,5.0,94,0.06,,,0.30,meteohub,2013-05-03 03:57:00,
2013-05-02 23:02:00,66.6,64.8,29.95,North,349,2.0,5.0,94,0.08,,,0.32,meteohub,2013-05-03 04:02:00,
2013-05-02 23:07:00,66.7,65.3,29.95,NE,53,2.0,6.0,95,0.12,,,0.36,meteohub,2013-05-03 04:07:00,
2013-05-02 23:12:00,66.6,65.1,29.95,NNE,22,2.0,6.0,95,0.13,,,0.37,meteohub,2013-05-03 04:12:00,
2013-05-02 23:17:00,66.7,65.3,29.95,NW,315,0.0,6.0,95,0.13,,,0.37,meteohub,2013-05-03 04:17:00,
2013-05-02 23:22:00,66.7,65.3,29.95,North,351,1.0,4.0,95,0.13,,,0.37,meteohub,2013-05-03 04:22:00,
2013-05-02 23:27:00,66.7,65.3,29.95,North,355,2.0,4.0,95,0.12,,,0.37,meteohub,2013-05-03 04:27:00,
2013-05-02 23:32:00,66.7,65.3,29.95,North,355,0.0,4.0,95,0.12,,,0.37,meteohub,2013-05-03 04:32:00,
2013-05-02 23:37:00,66.7,65.3,29.95,North,355,0.0,4.0,95,0.12,,,0.37,meteohub,2013-05-03 04:37:00,
2013-05-02 23:42:00,66.7,65.3,29.95,North,355,0.0,3.0,95,0.12,,,0.37,meteohub,2013-05-03 04:42:00,
2013-05-02 23:47:00,66.7,65.3,29.95,NW,304,0.0,2.0,95,0.11,,,0.37,meteohub,2013-05-03 04:47:00,
2013-05-02 23:52:00,66.7,65.3,29.95,NW,306,0.0,3.0,95,0.09,,,0.37,meteohub,2013-05-03 04:52:00,
2013-05-02 23:57:00,66.7,65.3,29.94,NW,321,0.0,3.0,95,0.07,,,0.37,meteohub,2013-05-03 04:57:00,